Time;durP1;ratioP1;P1;durP2;ratioP2;P2;SDS_P1;SDS_P2;PMS_P1;PMS_P2;Temp;Humidity;BMP_temperature;BMP_pressure;BME280_temperature;BME280_humidity;BME280_pressure;Samples;Min_cycle;Max_cycle;Signal;HPM_P1;HPM_P2
2023/06/30 00:00:25;;;;;;;;;;;25.70;40.30;;;;;;1627355;71;1917;-55
2023/06/30 00:02:27;;;;;;;;;;;25.80;40.20;;;;;;1639760;71;1757;-56
2023/06/30 00:04:30;;;;;;;;;;;25.80;40.30;;;;;;1631685;71;1559;-54
2023/06/30 00:06:32;;;;;;;;;;;25.80;40.40;;;;;;1630776;71;784;-56
2023/06/30 00:08:34;;;;;;;;;;;25.80;40.50;;;;;;1624096;71;1138;-57
2023/06/30 00:10:36;;;;;;;;;;;25.80;40.60;;;;;;1617969;71;801;-56
2023/06/30 00:12:37;;;;;;;;;;;25.80;40.70;;;;;;1624746;71;920;-56
2023/06/30 00:14:39;;;;;;;;;;;25.80;40.50;;;;;;1630707;71;702;-59
2023/06/30 00:16:41;;;;;;;;;;;25.80;40.60;;;;;;1604572;71;729;-56
2023/06/30 00:18:43;;;;;;;;;;;25.80;40.70;;;;;;1627882;71;1533;-54
2023/06/30 00:20:45;;;;;;;;;;;25.80;40.70;;;;;;1628854;71;1932;-58
2023/06/30 00:22:47;;;;;;;;;;;25.80;40.70;;;;;;1643150;71;725;-55
2023/06/30 00:24:55;;;;;;;;;;;25.80;40.50;;;;;;1630304;71;722;-57
2023/06/30 00:26:57;;;;;;;;;;;25.90;40.40;;;;;;1622739;71;726;-58
2023/06/30 00:29:01;;;;;;;;;;;25.90;40.50;;;;;;1631092;71;1145;-58
2023/06/30 00:31:02;;;;;;;;;;;25.80;40.40;;;;;;1619880;71;1659;-56
2023/06/30 00:33:04;;;;;;;;;;;25.90;40.40;;;;;;1631215;71;1350;-55
2023/06/30 00:35:06;;;;;;;;;;;25.90;40.30;;;;;;1629932;71;720;-59
2023/06/30 00:37:08;;;;;;;;;;;25.90;40.60;;;;;;1614900;71;695;-58
2023/06/30 00:39:10;;;;;;;;;;;25.80;40.90;;;;;;1623919;71;1148;-57
2023/06/30 00:41:12;;;;;;;;;;;25.80;41.00;;;;;;1629902;71;1919;-56
2023/06/30 00:43:14;;;;;;;;;;;25.80;40.90;;;;;;1619221;71;763;-57
2023/06/30 00:45:16;;;;;;;;;;;25.80;41.00;;;;;;1635797;71;751;-58
2023/06/30 00:47:18;;;;;;;;;;;25.90;40.70;;;;;;1640835;71;1655;-56
2023/06/30 00:49:19;;;;;;;;;;;25.90;41.00;;;;;;1635430;71;1104;-56
2023/06/30 00:51:21;;;;;;;;;;;25.80;40.90;;;;;;1628818;71;813;-58
2023/06/30 00:53:23;;;;;;;;;;;25.80;41.00;;;;;;1629730;71;730;-57
2023/06/30 00:55:26;;;;;;;;;;;25.70;41.40;;;;;;1623337;71;789;-57
2023/06/30 00:57:27;;;;;;;;;;;25.80;41.50;;;;;;1630357;71;742;-56
2023/06/30 00:59:29;;;;;;;;;;;25.70;41.80;;;;;;1629168;71;1104;-56
2023/06/30 01:01:43;;;;;;;;;;;25.80;41.60;;;;;;1641090;71;1935;-57
2023/06/30 01:03:43;;;;;;;;;;;25.80;41.70;;;;;;1633891;71;1273;-56
2023/06/30 01:05:47;;;;;;;;;;;25.80;42.00;;;;;;1630457;71;740;-57
2023/06/30 01:07:51;;;;;;;;;;;25.80;42.00;;;;;;1635142;71;701;-56
2023/06/30 01:09:54;;;;;;;;;;;25.80;42.00;;;;;;1628062;71;729;-57
2023/06/30 01:11:56;;;;;;;;;;;25.70;42.00;;;;;;1629905;71;819;-55
2023/06/30 01:13:58;;;;;;;;;;;25.80;41.90;;;;;;1627576;71;1505;-57
2023/06/30 01:16:00;;;;;;;;;;;25.70;42.10;;;;;;1623995;71;667;-55
2023/06/30 01:18:02;;;;;;;;;;;25.70;41.90;;;;;;1624599;71;1149;-54
2023/06/30 01:20:05;;;;;;;;;;;25.80;42.00;;;;;;1635111;71;796;-56
2023/06/30 01:22:13;;;;;;;;;;;25.70;42.10;;;;;;1633718;71;1898;-57
2023/06/30 01:24:15;;;;;;;;;;;25.70;42.20;;;;;;1624205;71;1860;-58
2023/06/30 01:26:18;;;;;;;;;;;25.70;42.30;;;;;;1645245;71;761;-58
2023/06/30 01:28:20;;;;;;;;;;;25.70;42.30;;;;;;1629407;71;1562;-58
2023/06/30 01:30:22;;;;;;;;;;;25.70;42.20;;;;;;1642613;71;711;-60
2023/06/30 01:32:24;;;;;;;;;;;25.70;42.30;;;;;;1633935;71;662;-58
2023/06/30 01:34:26;;;;;;;;;;;25.70;42.30;;;;;;1619046;71;726;-58
2023/06/30 01:36:28;;;;;;;;;;;25.70;42.20;;;;;;1623539;71;703;-56
2023/06/30 01:38:30;;;;;;;;;;;25.70;42.40;;;;;;1636790;71;1181;-56
2023/06/30 01:40:32;;;;;;;;;;;25.70;42.30;;;;;;1637202;71;722;-56
2023/06/30 01:42:34;;;;;;;;;;;25.70;42.30;;;;;;1621288;71;1945;-56
2023/06/30 01:44:36;;;;;;;;;;;25.70;42.60;;;;;;1623604;71;777;-58
2023/06/30 01:46:37;;;;;;;;;;;25.70;42.30;;;;;;1642536;71;679;-57
2023/06/30 01:48:40;;;;;;;;;;;25.70;42.40;;;;;;1640729;71;1141;-58
2023/06/30 01:50:43;;;;;;;;;;;25.80;42.10;;;;;;1645115;71;780;-57
2023/06/30 01:52:45;;;;;;;;;;;25.80;42.20;;;;;;1626228;71;719;-56
2023/06/30 01:54:46;;;;;;;;;;;25.70;42.40;;;;;;1628803;71;678;-56
2023/06/30 01:56:49;;;;;;;;;;;25.80;42.20;;;;;;1628180;71;1535;-56
2023/06/30 01:58:50;;;;;;;;;;;25.80;42.00;;;;;;1615825;71;1156;-56
2023/06/30 02:00:52;;;;;;;;;;;25.90;42.10;;;;;;1645874;71;755;-58
2023/06/30 02:02:54;;;;;;;;;;;25.90;42.10;;;;;;1638036;71;1938;-58
2023/06/30 02:04:56;;;;;;;;;;;25.90;42.00;;;;;;1628699;71;850;-55
2023/06/30 02:06:58;;;;;;;;;;;25.80;42.10;;;;;;1623529;71;793;-56
2023/06/30 02:09:00;;;;;;;;;;;25.80;42.00;;;;;;1626832;71;1125;-57
2023/06/30 02:11:02;;;;;;;;;;;25.90;42.20;;;;;;1627628;71;1528;-58
2023/06/30 02:13:04;;;;;;;;;;;25.80;42.10;;;;;;1632121;71;711;-55
2023/06/30 02:15:08;;;;;;;;;;;25.90;42.20;;;;;;1628385;71;791;-58
2023/06/30 02:17:10;;;;;;;;;;;25.80;42.30;;;;;;1637773;71;737;-54
2023/06/30 02:19:12;;;;;;;;;;;25.90;42.20;;;;;;1628315;71;1160;-55
2023/06/30 02:21:14;;;;;;;;;;;25.90;42.40;;;;;;1645726;71;1922;-58
2023/06/30 02:23:16;;;;;;;;;;;25.90;42.20;;;;;;1622127;71;770;-58
2023/06/30 02:25:18;;;;;;;;;;;25.90;42.20;;;;;;1623045;71;1527;-57
2023/06/30 02:27:19;;;;;;;;;;;25.90;42.10;;;;;;1629246;71;683;-56
2023/06/30 02:29:21;;;;;;;;;;;25.90;42.20;;;;;;1621898;71;1133;-58
2023/06/30 02:31:25;;;;;;;;;;;25.90;42.40;;;;;;1644810;71;768;-57
2023/06/30 02:33:27;;;;;;;;;;;25.90;42.40;;;;;;1619692;71;724;-58
2023/06/30 02:35:29;;;;;;;;;;;25.80;42.60;;;;;;1617594;71;799;-58
2023/06/30 02:37:30;;;;;;;;;;;25.80;42.80;;;;;;1620476;71;692;-56
2023/06/30 02:39:32;;;;;;;;;;;25.80;43.00;;;;;;1626982;71;1525;-58
2023/06/30 02:41:34;;;;;;;;;;;25.70;43.30;;;;;;1629537;71;1931;-58
2023/06/30 02:43:36;;;;;;;;;;;25.70;43.10;;;;;;1638201;71;755;-57
2023/06/30 02:45:38;;;;;;;;;;;25.70;43.10;;;;;;1617946;71;736;-59
2023/06/30 02:47:40;;;;;;;;;;;25.80;43.00;;;;;;1638378;71;711;-60
2023/06/30 02:49:42;;;;;;;;;;;25.80;42.80;;;;;;1628067;71;1071;-56
2023/06/30 02:51:44;;;;;;;;;;;25.80;42.90;;;;;;1613980;71;792;-57
2023/06/30 02:53:45;;;;;;;;;;;25.80;43.00;;;;;;1623697;71;1507;-57
2023/06/30 02:55:47;;;;;;;;;;;25.80;42.90;;;;;;1625616;71;753;-58
2023/06/30 02:57:49;;;;;;;;;;;25.80;42.90;;;;;;1625766;71;781;-57
2023/06/30 02:59:51;;;;;;;;;;;25.80;42.90;;;;;;1620103;71;708;-58
2023/06/30 03:01:53;;;;;;;;;;;25.80;42.90;;;;;;1642055;71;1939;-57
2023/06/30 03:03:55;;;;;;;;;;;25.90;42.90;;;;;;1620747;71;822;-57
2023/06/30 03:05:57;;;;;;;;;;;25.90;42.80;;;;;;1614436;71;696;-59
2023/06/30 03:07:59;;;;;;;;;;;25.90;42.80;;;;;;1631691;71;1475;-54
2023/06/30 03:10:01;;;;;;;;;;;25.90;42.80;;;;;;1628362;71;742;-59
2023/06/30 03:12:03;;;;;;;;;;;25.80;42.90;;;;;;1630203;71;741;-57
2023/06/30 03:14:04;;;;;;;;;;;25.80;42.90;;;;;;1612157;71;808;-57
2023/06/30 03:16:07;;;;;;;;;;;25.80;42.90;;;;;;1616213;71;679;-58
2023/06/30 03:18:09;;;;;;;;;;;25.90;42.70;;;;;;1627353;71;1169;-58
2023/06/30 03:20:12;;;;;;;;;;;25.80;42.60;;;;;;1629459;71;716;-56
2023/06/30 03:22:14;;;;;;;;;;;25.80;42.50;;;;;;1624793;71;1916;-58
2023/06/30 03:24:15;;;;;;;;;;;25.80;42.60;;;;;;1625076;71;788;-59
2023/06/30 03:26:17;;;;;;;;;;;25.90;42.60;;;;;;1621609;71;764;-58
2023/06/30 03:28:19;;;;;;;;;;;25.80;42.50;;;;;;1623522;71;1158;-58
2023/06/30 03:30:21;;;;;;;;;;;25.80;42.60;;;;;;1620488;71;770;-56
2023/06/30 03:32:23;;;;;;;;;;;25.80;42.60;;;;;;1620907;71;647;-56
2023/06/30 03:34:25;;;;;;;;;;;25.90;42.60;;;;;;1625763;71;727;-57
2023/06/30 03:36:27;;;;;;;;;;;25.90;42.80;;;;;;1625802;71;1527;-56
2023/06/30 03:38:29;;;;;;;;;;;25.90;42.80;;;;;;1631776;71;1133;-59
2023/06/30 03:40:30;;;;;;;;;;;25.90;42.70;;;;;;1628016;71;764;-58
2023/06/30 03:42:32;;;;;;;;;;;25.80;42.70;;;;;;1620617;71;1936;-58
2023/06/30 03:44:34;;;;;;;;;;;25.90;42.70;;;;;;1616734;71;676;-59
2023/06/30 03:46:37;;;;;;;;;;;25.90;42.60;;;;;;1621177;71;774;-57
2023/06/30 03:48:39;;;;;;;;;;;25.80;42.80;;;;;;1621876;71;1559;-61
2023/06/30 03:50:43;;;;;;;;;;;25.90;42.70;;;;;;1627208;71;686;-58
2023/06/30 03:52:45;;;;;;;;;;;25.80;42.70;;;;;;1633199;71;1546;-59
2023/06/30 03:54:47;;;;;;;;;;;25.80;42.50;;;;;;1631445;71;634;-58
2023/06/30 03:56:49;;;;;;;;;;;25.80;42.80;;;;;;1635575;71;631;-58
2023/06/30 03:58:50;;;;;;;;;;;25.90;42.70;;;;;;1643628;70;1143;-61
2023/06/30 04:00:52;;;;;;;;;;;25.90;43.00;;;;;;1614993;71;788;-58
2023/06/30 04:02:54;;;;;;;;;;;25.90;42.80;;;;;;1621072;71;1930;-59
2023/06/30 04:04:56;;;;;;;;;;;25.90;42.80;;;;;;1643083;71;866;-53
2023/06/30 04:06:58;;;;;;;;;;;25.90;42.80;;;;;;1620708;71;687;-55
2023/06/30 04:09:00;;;;;;;;;;;25.80;42.80;;;;;;1627545;71;1062;-57
2023/06/30 04:11:02;;;;;;;;;;;26.00;43.40;;;;;;1631117;71;776;-58
2023/06/30 04:13:06;;;;;;;;;;;25.90;43.00;;;;;;1626640;71;704;-56
2023/06/30 04:15:10;;;;;;;;;;;25.90;42.90;;;;;;1626036;71;1004;-58
2023/06/30 04:17:11;;;;;;;;;;;25.90;43.00;;;;;;1611432;71;1568;-59
2023/06/30 04:19:13;;;;;;;;;;;25.90;43.00;;;;;;1630219;71;1188;-57
2023/06/30 04:21:17;;;;;;;;;;;25.90;43.10;;;;;;1625033;71;722;-54
2023/06/30 04:23:22;;;;;;;;;;;25.90;43.20;;;;;;1624703;71;1905;-56
2023/06/30 04:25:23;;;;;;;;;;;25.90;43.30;;;;;;1624515;71;676;-58
2023/06/30 04:27:25;;;;;;;;;;;25.80;43.50;;;;;;1629358;71;737;-56
2023/06/30 04:29:27;;;;;;;;;;;25.80;43.50;;;;;;1628910;71;1188;-58
2023/06/30 04:31:29;;;;;;;;;;;25.80;43.40;;;;;;1636284;71;1516;-58
2023/06/30 04:33:33;;;;;;;;;;;25.90;42.80;;;;;;1636535;71;759;-60
2023/06/30 04:35:35;;;;;;;;;;;25.90;42.90;;;;;;1614960;71;774;-57
2023/06/30 04:37:40;;;;;;;;;;;25.90;43.40;;;;;;1619093;71;779;-57
2023/06/30 04:39:42;;;;;;;;;;;25.90;43.40;;;;;;1617170;71;1503;-58
2023/06/30 04:41:44;;;;;;;;;;;25.90;43.20;;;;;;1627551;71;748;-59
2023/06/30 04:43:45;;;;;;;;;;;25.90;43.00;;;;;;1626803;71;1924;-58
2023/06/30 04:45:47;;;;;;;;;;;25.90;43.10;;;;;;1625798;71;1583;-59
2023/06/30 04:47:49;;;;;;;;;;;25.90;43.10;;;;;;1642664;71;773;-57
2023/06/30 04:49:51;;;;;;;;;;;26.00;43.60;;;;;;1626042;71;975;-58
2023/06/30 04:51:53;;;;;;;;;;;26.00;43.50;;;;;;1638930;71;631;-56
2023/06/30 04:53:55;;;;;;;;;;;25.90;43.10;;;;;;1636668;71;766;-57
2023/06/30 04:55:57;;;;;;;;;;;25.90;43.10;;;;;;1635175;71;709;-59
2023/06/30 04:57:58;;;;;;;;;;;25.90;43.10;;;;;;1626259;71;1066;-59
2023/06/30 05:00:00;;;;;;;;;;;25.90;43.10;;;;;;1629293;71;1322;-59
2023/06/30 05:02:02;;;;;;;;;;;26.00;43.60;;;;;;1638356;71;795;-57
2023/06/30 05:04:04;;;;;;;;;;;25.90;43.30;;;;;;1624906;71;1939;-56
2023/06/30 05:06:08;;;;;;;;;;;25.90;43.10;;;;;;1620234;71;763;-58
2023/06/30 05:08:10;;;;;;;;;;;26.00;43.40;;;;;;1620928;71;1114;-59
2023/06/30 05:10:11;;;;;;;;;;;25.90;43.50;;;;;;1624728;71;783;-58
2023/06/30 05:12:17;;;;;;;;;;;25.90;43.60;;;;;;1624217;71;765;-60
2023/06/30 05:14:18;;;;;;;;;;;25.90;44.40;;;;;;1618491;71;1820;-57
2023/06/30 05:16:20;;;;;;;;;;;25.90;44.70;;;;;;1634321;71;803;-59
2023/06/30 05:18:22;;;;;;;;;;;25.90;45.20;;;;;;1637756;71;1176;-57
2023/06/30 05:20:24;;;;;;;;;;;25.90;45.50;;;;;;1644512;71;731;-60
2023/06/30 05:22:26;;;;;;;;;;;25.80;46.00;;;;;;1617098;71;1944;-59
2023/06/30 05:24:28;;;;;;;;;;;25.80;46.10;;;;;;1608051;71;758;-60
2023/06/30 05:26:30;;;;;;;;;;;25.80;46.20;;;;;;1617507;71;870;-57
2023/06/30 05:28:32;;;;;;;;;;;25.80;46.20;;;;;;1639667;71;1499;-57
2023/06/30 05:30:33;;;;;;;;;;;25.80;46.40;;;;;;1626125;71;749;-59
2023/06/30 05:32:35;;;;;;;;;;;25.70;46.50;;;;;;1621264;71;655;-59
2023/06/30 05:34:37;;;;;;;;;;;25.70;46.70;;;;;;1640595;71;708;-57
2023/06/30 05:36:39;;;;;;;;;;;25.60;46.80;;;;;;1623910;71;944;-58
2023/06/30 05:38:41;;;;;;;;;;;25.60;46.80;;;;;;1631306;71;1164;-57
2023/06/30 05:40:43;;;;;;;;;;;25.60;46.90;;;;;;1611720;71;786;-57
2023/06/30 05:42:45;;;;;;;;;;;25.60;46.80;;;;;;1622370;71;1930;-56
2023/06/30 05:44:47;;;;;;;;;;;25.60;47.10;;;;;;1628589;71;689;-60
2023/06/30 05:46:48;;;;;;;;;;;25.60;47.30;;;;;;1642086;71;685;-60
2023/06/30 05:48:50;;;;;;;;;;;25.60;47.30;;;;;;1620083;71;1130;-60
2023/06/30 05:50:52;;;;;;;;;;;25.60;47.40;;;;;;1627973;71;750;-60
2023/06/30 05:52:54;;;;;;;;;;;25.60;47.40;;;;;;1612703;71;627;-57
2023/06/30 05:54:56;;;;;;;;;;;25.50;47.50;;;;;;1610091;71;872;-59
2023/06/30 05:56:58;;;;;;;;;;;25.50;47.70;;;;;;1625426;71;1635;-58
2023/06/30 05:59:00;;;;;;;;;;;25.50;47.90;;;;;;1624739;71;1126;-58
2023/06/30 06:01:01;;;;;;;;;;;25.50;47.90;;;;;;1619682;71;671;-60
2023/06/30 06:03:03;;;;;;;;;;;25.50;48.10;;;;;;1629813;71;1925;-60
2023/06/30 06:05:05;;;;;;;;;;;25.50;48.00;;;;;;1640154;71;634;-59
2023/06/30 06:07:07;;;;;;;;;;;25.50;48.10;;;;;;1637739;71;753;-58
2023/06/30 06:09:10;;;;;;;;;;;25.50;48.10;;;;;;1632974;71;1344;-58
2023/06/30 06:11:12;;;;;;;;;;;25.50;48.00;;;;;;1641493;71;762;-60
2023/06/30 06:13:15;;;;;;;;;;;25.50;47.90;;;;;;1629485;71;780;-60
2023/06/30 06:15:17;;;;;;;;;;;25.50;48.10;;;;;;1633989;71;1875;-58
2023/06/30 06:17:19;;;;;;;;;;;25.50;48.30;;;;;;1634795;71;743;-57
2023/06/30 06:19:21;;;;;;;;;;;25.50;48.20;;;;;;1624431;71;1142;-58
2023/06/30 06:21:27;;;;;;;;;;;25.50;48.10;;;;;;1622613;71;787;-60
2023/06/30 06:23:29;;;;;;;;;;;25.50;47.80;;;;;;1636414;71;1916;-58
2023/06/30 06:25:30;;;;;;;;;;;25.50;48.10;;;;;;1636283;71;725;-58
2023/06/30 06:27:35;;;;;;;;;;;25.50;48.20;;;;;;1632783;71;561;-57
2023/06/30 06:29:37;;;;;;;;;;;25.50;48.30;;;;;;1646559;71;1105;-59
2023/06/30 06:31:39;;;;;;;;;;;25.40;48.50;;;;;;1627431;71;795;-57
2023/06/30 06:33:42;;;;;;;;;;;25.50;48.80;;;;;;1628156;71;773;-58
2023/06/30 06:35:44;;;;;;;;;;;25.40;48.90;;;;;;1645768;71;738;-60
2023/06/30 06:37:46;;;;;;;;;;;25.40;48.90;;;;;;1623526;71;1518;-59
2023/06/30 06:39:48;;;;;;;;;;;25.40;48.80;;;;;;1621850;71;1170;-58
2023/06/30 06:41:49;;;;;;;;;;;25.40;48.90;;;;;;1627384;71;721;-58
2023/06/30 06:43:51;;;;;;;;;;;25.40;49.20;;;;;;1632029;71;1938;-57
2023/06/30 06:45:54;;;;;;;;;;;25.40;49.20;;;;;;1632639;71;595;-58
2023/06/30 06:48:13;;;;;;;;;;;25.40;49.20;;;;;;1618263;71;1151;-59
2023/06/30 06:50:15;;;;;;;;;;;25.40;49.40;;;;;;1620974;71;720;-58
2023/06/30 06:52:17;;;;;;;;;;;25.30;49.60;;;;;;1635606;71;1320;-57
2023/06/30 06:54:19;;;;;;;;;;;25.30;49.70;;;;;;1628399;71;698;-57
2023/06/30 06:56:21;;;;;;;;;;;25.20;49.70;;;;;;1634059;71;693;-58
2023/06/30 06:58:24;;;;;;;;;;;25.30;49.80;;;;;;1620761;71;1131;-57
2023/06/30 07:00:25;;;;;;;;;;;25.30;49.80;;;;;;1641197;71;784;-58
2023/06/30 07:02:27;;;;;;;;;;;25.30;49.80;;;;;;1634053;71;758;-58
2023/06/30 07:04:29;;;;;;;;;;;25.20;49.90;;;;;;1618970;71;1929;-57
2023/06/30 07:06:31;;;;;;;;;;;25.20;49.80;;;;;;1621304;71;1514;-57
2023/06/30 07:08:35;;;;;;;;;;;25.20;49.90;;;;;;1645892;71;1171;-58
2023/06/30 07:10:37;;;;;;;;;;;25.20;50.20;;;;;;1632725;71;729;-57
2023/06/30 07:12:38;;;;;;;;;;;25.20;50.10;;;;;;1625576;71;724;-57
2023/06/30 07:14:40;;;;;;;;;;;25.20;50.20;;;;;;1619411;71;727;-59
2023/06/30 07:16:42;;;;;;;;;;;25.30;50.30;;;;;;1631936;71;818;-57
2023/06/30 07:18:44;;;;;;;;;;;25.30;50.30;;;;;;1620673;71;1122;-57
2023/06/30 07:20:47;;;;;;;;;;;25.10;50.70;;;;;;1622040;71;1557;-59
2023/06/30 07:22:50;;;;;;;;;;;25.20;50.70;;;;;;1625963;71;1698;-57
2023/06/30 07:24:52;;;;;;;;;;;25.20;50.60;;;;;;1604238;71;1922;-59
2023/06/30 07:26:54;;;;;;;;;;;25.20;50.80;;;;;;1621937;71;751;-58
2023/06/30 07:28:56;;;;;;;;;;;25.20;50.90;;;;;;1627375;71;1137;-60
2023/06/30 07:30:58;;;;;;;;;;;25.10;50.90;;;;;;1623303;71;774;-58
2023/06/30 07:32:59;;;;;;;;;;;25.20;51.00;;;;;;1643417;71;714;-57
2023/06/30 07:35:02;;;;;;;;;;;25.10;50.90;;;;;;1623099;71;1682;-57
2023/06/30 07:37:04;;;;;;;;;;;25.10;51.00;;;;;;1635382;71;948;-57
2023/06/30 07:39:06;;;;;;;;;;;25.10;51.10;;;;;;1628366;71;1145;-57
2023/06/30 07:41:08;;;;;;;;;;;25.10;51.10;;;;;;1639503;71;729;-58
2023/06/30 07:43:10;;;;;;;;;;;25.10;51.00;;;;;;1623083;71;1939;-58
2023/06/30 07:45:13;;;;;;;;;;;25.10;50.90;;;;;;1624402;71;792;-57
2023/06/30 07:47:14;;;;;;;;;;;25.10;50.90;;;;;;1627534;71;681;-57
2023/06/30 07:49:16;;;;;;;;;;;25.20;50.90;;;;;;1624371;71;1548;-58
2023/06/30 07:51:18;;;;;;;;;;;25.10;51.00;;;;;;1621283;71;770;-59
2023/06/30 07:53:21;;;;;;;;;;;25.10;51.00;;;;;;1633757;71;777;-57
2023/06/30 07:55:23;;;;;;;;;;;25.10;51.20;;;;;;1617883;71;725;-59
2023/06/30 07:57:26;;;;;;;;;;;25.10;51.20;;;;;;1633753;71;588;-58
2023/06/30 07:59:28;;;;;;;;;;;25.10;51.40;;;;;;1619905;71;1768;-56
2023/06/30 08:01:30;;;;;;;;;;;25.10;51.40;;;;;;1636773;71;803;-57
2023/06/30 08:03:33;;;;;;;;;;;25.10;51.20;;;;;;1627188;71;1905;-58
2023/06/30 08:05:35;;;;;;;;;;;25.10;51.30;;;;;;1645071;71;606;-57
2023/06/30 08:07:37;;;;;;;;;;;25.10;51.40;;;;;;1636467;71;718;-60
2023/06/30 08:09:39;;;;;;;;;;;25.10;51.30;;;;;;1618927;70;1096;-60
2023/06/30 08:11:40;;;;;;;;;;;25.10;51.40;;;;;;1631402;71;642;-57
2023/06/30 08:13:42;;;;;;;;;;;25.10;51.20;;;;;;1619066;71;791;-58
2023/06/30 08:15:44;;;;;;;;;;;25.10;51.30;;;;;;1616956;71;1529;-57
2023/06/30 08:17:46;;;;;;;;;;;25.10;51.40;;;;;;1618211;71;822;-57
2023/06/30 08:19:48;;;;;;;;;;;25.20;51.40;;;;;;1638769;71;1220;-58
2023/06/30 08:21:50;;;;;;;;;;;25.20;51.20;;;;;;1632717;71;750;-60
2023/06/30 08:23:52;;;;;;;;;;;25.20;51.30;;;;;;1654525;71;1938;-57
2023/06/30 08:25:55;;;;;;;;;;;25.20;51.00;;;;;;1623840;71;682;-57
2023/06/30 08:27:57;;;;;;;;;;;25.20;51.00;;;;;;1635518;71;1135;-59
2023/06/30 08:29:59;;;;;;;;;;;25.20;51.30;;;;;;1623234;71;1396;-57
2023/06/30 08:32:01;;;;;;;;;;;25.20;51.30;;;;;;1636343;71;720;-58
2023/06/30 08:34:04;;;;;;;;;;;25.20;51.50;;;;;;1622732;71;789;-58
2023/06/30 08:36:06;;;;;;;;;;;25.20;51.40;;;;;;1632848;71;716;-57
2023/06/30 08:38:08;;;;;;;;;;;25.20;51.30;;;;;;1642587;71;1139;-59
2023/06/30 08:40:10;;;;;;;;;;;25.30;51.60;;;;;;1633168;71;769;-57
2023/06/30 08:42:12;;;;;;;;;;;25.20;51.60;;;;;;1626248;71;694;-59
2023/06/30 08:44:14;;;;;;;;;;;25.10;51.70;;;;;;1615503;71;1925;-58
2023/06/30 08:46:16;;;;;;;;;;;25.10;51.50;;;;;;1644291;71;763;-57
2023/06/30 08:48:20;;;;;;;;;;;25.20;51.50;;;;;;1630952;71;1133;-59
2023/06/30 08:50:22;;;;;;;;;;;25.20;51.50;;;;;;1617533;71;672;-59
2023/06/30 08:52:24;;;;;;;;;;;25.10;51.80;;;;;;1645457;71;720;-58
2023/06/30 08:54:27;;;;;;;;;;;25.20;52.20;;;;;;1613347;71;750;-57
2023/06/30 08:56:29;;;;;;;;;;;25.20;52.30;;;;;;1634077;71;772;-58
2023/06/30 08:58:31;;;;;;;;;;;25.20;52.10;;;;;;1613869;71;1687;-58
2023/06/30 09:00:33;;;;;;;;;;;25.30;52.00;;;;;;1624747;71;758;-58
2023/06/30 09:02:35;;;;;;;;;;;25.20;52.20;;;;;;1622993;71;654;-58
2023/06/30 09:04:37;;;;;;;;;;;25.20;51.90;;;;;;1618911;71;1939;-58
2023/06/30 09:06:41;;;;;;;;;;;25.30;51.60;;;;;;1630643;71;724;-58
2023/06/30 09:08:47;;;;;;;;;;;25.30;51.30;;;;;;1616155;71;1126;-58
2023/06/30 09:10:49;;;;;;;;;;;25.40;51.30;;;;;;1625232;71;1901;-58
2023/06/30 09:12:54;;;;;;;;;;;25.30;51.30;;;;;;1633433;71;1505;-57
2023/06/30 09:14:54;;;;;;;;;;;25.30;51.60;;;;;;1623066;71;1627;-59
2023/06/30 09:16:56;;;;;;;;;;;25.20;51.80;;;;;;1624466;71;789;-56
2023/06/30 09:18:58;;;;;;;;;;;25.30;52.00;;;;;;1626101;71;1116;-58
2023/06/30 09:21:00;;;;;;;;;;;25.30;52.10;;;;;;1642451;71;740;-58
2023/06/30 09:23:02;;;;;;;;;;;25.20;52.20;;;;;;1640459;71;703;-57
2023/06/30 09:25:04;;;;;;;;;;;25.30;52.20;;;;;;1628596;71;1942;-58
2023/06/30 09:27:06;;;;;;;;;;;25.20;52.20;;;;;;1640005;71;1260;-57
2023/06/30 09:29:13;;;;;;;;;;;25.20;52.30;;;;;;1636735;71;1141;-58
2023/06/30 09:31:12;;;;;;;;;;;25.20;52.30;;;;;;1636536;71;1577;-60
2023/06/30 09:33:15;;;;;;;;;;;25.20;52.60;;;;;;1637453;71;715;-57
2023/06/30 09:35:17;;;;;;;;;;;25.20;52.60;;;;;;1627083;71;732;-58
2023/06/30 09:37:20;;;;;;;;;;;25.30;52.60;;;;;;1635796;71;682;-59
2023/06/30 09:39:22;;;;;;;;;;;25.20;52.70;;;;;;1623950;71;1160;-58
2023/06/30 09:41:26;;;;;;;;;;;25.20;52.60;;;;;;1621199;71;1517;-59
2023/06/30 09:43:28;;;;;;;;;;;25.30;52.50;;;;;;1631758;71;740;-57
2023/06/30 09:45:30;;;;;;;;;;;25.20;52.50;;;;;;1625296;71;1946;-57
2023/06/30 09:47:31;;;;;;;;;;;25.20;52.70;;;;;;1626576;71;1487;-57
2023/06/30 09:49:33;;;;;;;;;;;25.30;52.70;;;;;;1640737;71;1339;-58
2023/06/30 09:51:37;;;;;;;;;;;25.30;52.70;;;;;;1629673;71;1160;-58
2023/06/30 09:53:40;;;;;;;;;;;25.30;52.60;;;;;;1629681;71;1196;-57
2023/06/30 09:55:49;;;;;;;;;;;25.20;52.70;;;;;;1630974;71;1469;-57
2023/06/30 09:57:52;;;;;;;;;;;25.20;52.80;;;;;;1625539;71;1457;-57
2023/06/30 09:59:54;;;;;;;;;;;25.30;52.90;;;;;;1623907;71;1134;-59
2023/06/30 10:01:56;;;;;;;;;;;25.20;52.80;;;;;;1633677;71;1078;-57
2023/06/30 10:03:58;;;;;;;;;;;25.30;52.70;;;;;;1623172;71;1505;-59
2023/06/30 10:06:00;;;;;;;;;;;25.30;52.60;;;;;;1618083;71;1931;-57
2023/06/30 10:08:02;;;;;;;;;;;25.30;52.60;;;;;;1620603;71;1490;-57
2023/06/30 10:10:04;;;;;;;;;;;25.30;52.50;;;;;;1626944;71;1569;-57
2023/06/30 10:12:06;;;;;;;;;;;25.30;52.50;;;;;;1634984;71;1502;-58
2023/06/30 10:14:08;;;;;;;;;;;25.40;52.40;;;;;;1635902;71;1128;-57
2023/06/30 10:16:10;;;;;;;;;;;25.40;52.40;;;;;;1642657;71;1478;-59
2023/06/30 10:18:11;;;;;;;;;;;25.40;52.80;;;;;;1629184;71;1442;-58
2023/06/30 10:20:13;;;;;;;;;;;25.30;52.70;;;;;;1619050;71;1436;-57
2023/06/30 10:22:15;;;;;;;;;;;25.20;52.80;;;;;;1621267;71;1473;-58
2023/06/30 10:24:20;;;;;;;;;;;25.20;52.30;;;;;;1617168;71;1931;-57
2023/06/30 10:26:22;;;;;;;;;;;25.30;52.40;;;;;;1586297;72;1505;-58
2023/06/30 10:28:24;;;;;;;;;;;25.30;52.60;;;;;;1615987;71;1508;-57
2023/06/30 10:30:26;;;;;;;;;;;25.30;52.30;;;;;;1634135;71;1579;-57
2023/06/30 10:32:28;;;;;;;;;;;25.30;51.80;;;;;;1623301;71;1489;-58
2023/06/30 10:34:30;;;;;;;;;;;25.30;51.80;;;;;;1623138;71;1093;-58
2023/06/30 10:36:32;;;;;;;;;;;25.30;51.80;;;;;;1629472;71;1671;-56
2023/06/30 10:38:34;;;;;;;;;;;25.40;52.00;;;;;;1629336;71;1423;-55
2023/06/30 10:40:36;;;;;;;;;;;25.30;52.10;;;;;;1618750;71;1544;-56
2023/06/30 10:42:38;;;;;;;;;;;25.30;52.20;;;;;;1620910;71;1385;-57
2023/06/30 10:44:42;;;;;;;;;;;25.30;52.30;;;;;;1632803;71;1955;-57
2023/06/30 10:46:49;;;;;;;;;;;25.30;51.70;;;;;;1628115;71;1904;-59
2023/06/30 10:48:47;;;;;;;;;;;25.30;52.10;;;;;;1631991;71;1710;-59
2023/06/30 10:50:50;;;;;;;;;;;25.30;52.10;;;;;;1631969;71;1397;-57
2023/06/30 10:52:53;;;;;;;;;;;25.30;51.90;;;;;;1602868;73;1533;-57
2023/06/30 10:54:55;;;;;;;;;;;25.30;51.60;;;;;;1622885;71;1508;-57
2023/06/30 10:57:11;;;;;;;;;;;25.40;51.70;;;;;;1622152;71;1514;-57
2023/06/30 10:59:17;;;;;;;;;;;25.40;51.60;;;;;;1620512;71;1510;-56
2023/06/30 11:01:19;;;;;;;;;;;25.40;51.50;;;;;;1624269;71;1494;-56
2023/06/30 11:03:21;;;;;;;;;;;25.40;51.80;;;;;;1618185;71;1733;-55
2023/06/30 11:05:27;;;;;;;;;;;25.40;51.50;;;;;;1627824;71;1943;-58
2023/06/30 11:07:29;;;;;;;;;;;25.40;51.30;;;;;;1635714;71;1394;-58
2023/06/30 11:09:51;;;;;;;;;;;25.40;51.10;;;;;;1614361;71;1487;-58
2023/06/30 11:11:53;;;;;;;;;;;25.50;51.40;;;;;;1619127;71;1468;-57
2023/06/30 11:14:04;;;;;;;;;;;25.50;51.90;;;;;;1615893;71;1469;-58
2023/06/30 11:16:08;;;;;;;;;;;25.40;51.80;;;;;;1621544;71;1277;-57
2023/06/30 11:18:14;;;;;;;;;;;25.40;51.60;;;;;;1616860;71;1128;-57
2023/06/30 11:20:16;;;;;;;;;;;25.50;51.40;;;;;;1607173;71;1695;-61
2023/06/30 11:22:29;;;;;;;;;;;25.50;51.30;;;;;;1631887;71;1465;-60
2023/06/30 11:24:28;;;;;;;;;;;25.50;52.40;;;;;;1627939;71;1916;-59
2023/06/30 11:26:30;;;;;;;;;;;25.40;52.10;;;;;;1626123;71;1088;-59
2023/06/30 11:28:32;;;;;;;;;;;25.30;52.70;;;;;;1600165;72;1751;-60
2023/06/30 11:30:34;;;;;;;;;;;25.30;52.90;;;;;;1622829;71;1311;-59
2023/06/30 11:32:37;;;;;;;;;;;25.30;52.60;;;;;;1641517;71;1476;-58
2023/06/30 11:34:39;;;;;;;;;;;25.30;52.50;;;;;;1623669;71;1436;-58
2023/06/30 11:36:41;;;;;;;;;;;25.40;52.90;;;;;;1628516;71;1487;-60
2023/06/30 11:38:46;;;;;;;;;;;25.40;53.40;;;;;;1634863;71;1491;-57
2023/06/30 11:40:49;;;;;;;;;;;25.30;53.20;;;;;;1628131;71;1466;-58
2023/06/30 11:42:54;;;;;;;;;;;25.20;53.70;;;;;;1621271;71;1262;-58
2023/06/30 11:44:56;;;;;;;;;;;25.10;53.50;;;;;;1628419;71;1926;-59
2023/06/30 11:46:58;;;;;;;;;;;25.10;53.60;;;;;;1613217;71;1478;-59
2023/06/30 11:49:00;;;;;;;;;;;25.10;53.60;;;;;;1630950;71;1472;-59
2023/06/30 11:51:02;;;;;;;;;;;25.10;53.70;;;;;;1599281;72;1508;-57
2023/06/30 11:53:04;;;;;;;;;;;25.10;53.80;;;;;;1636843;71;1149;-58
2023/06/30 11:55:06;;;;;;;;;;;25.20;53.60;;;;;;1619027;71;1493;-58
2023/06/30 11:57:08;;;;;;;;;;;25.10;54.00;;;;;;1629552;71;1464;-58
2023/06/30 11:59:10;;;;;;;;;;;25.20;53.80;;;;;;1621597;71;1255;-58
2023/06/30 12:01:12;;;;;;;;;;;25.20;53.90;;;;;;1641682;71;1281;-57
2023/06/30 12:03:17;;;;;;;;;;;25.30;54.20;;;;;;1631405;71;1706;-57
2023/06/30 12:05:28;;;;;;;;;;;25.20;54.50;;;;;;1621474;71;1927;-56
2023/06/30 12:07:32;;;;;;;;;;;25.10;54.70;;;;;;1629266;71;1436;-57